Flight Track Log - Related Links

Times and Time Zones

All times are in EDT time to prevent confusion due to time zone crossing. See the ASQ4574 flight status page for this flight to view local times or setup timezone preferences in your user account.

Time Position Orientation Groundspeed Altitude Reporting Facility
EDT Latitude Longitude Course Direction KTS MPH feet Rate Location/Type
Thu 08:29:43 AM 26.2194 -100.4486 32° Northeast 386 444 22,500  Level Houston Center
Thu 08:30:45 AM 26.3142 -100.3828 32° Northeast 397 457 23,500 1,073 Climbing Houston Center
Thu 08:31:46 AM 26.4283 -100.2994 33° Northeast 408 470 24,700 1,073 Climbing Houston Center
Thu 08:32:48 AM 26.5267 -100.2294 32° Northeast 415 478 25,700 1,016 Climbing Houston Center
Thu 08:33:50 AM 26.6258 -100.1581 33° Northeast 421 484 26,800 1,016 Climbing Houston Center
Thu 08:34:52 AM 26.7258 -100.0858 33° Northeast 426 490 27,800 976 Climbing Houston Center
Thu 08:35:53 AM 26.8272 -100.0131 33° Northeast 430 495 28,800 976 Climbing Houston Center
Thu 08:36:55 AM 26.9294 -99.9389 33° Northeast 436 502 29,800 968 Climbing Houston Center
Thu 08:37:57 AM 27.0319 -99.8628 33° Northeast 440 506 30,800 1,073 Climbing Houston Center
Thu 08:38:58 AM 27.1567 -99.7725 33° Northeast 444 511 32,000 1,073 Climbing Houston Center
Thu 08:40:00 AM 27.2617 -99.6950 33° Northeast 448 516 33,000 968 Climbing Houston Center
Thu 08:41:02 AM 27.3433 -99.5850 50° Northeast 457 526 34,000 927 Climbing Houston Center
Thu 08:42:03 AM 27.4211 -99.4700 53° Northeast 460 529 34,900 488 Climbing Houston Center
Thu 08:43:05 AM 27.5017 -99.3522 52° Northeast 470 541 35,000 48 Climbing Houston Center
Thu 08:44:07 AM 27.6164 -99.2717 32° Northeast 479 551 35,000  Level Houston Center
Thu 08:45:09 AM 27.7117 -99.1508 48° Northeast 517 595 35,000  Level Houston Center
Thu 08:46:10 AM 27.7972 -99.0161 54° Northeast 520 598 35,000  Level Houston Center
Thu 08:47:12 AM 27.8822 -98.8806 55° Northeast 521 600 35,000  Level Houston Center
Thu 08:48:14 AM 27.9664 -98.7467 55° Northeast 521 600 35,000  Level Houston Center
Thu 08:49:15 AM 28.0664 -98.5875 55° Northeast 516 594 35,000  Level Houston Center
Thu 08:50:17 AM 28.1486 -98.4561 55° Northeast 513 590 35,000  Level Houston Center
Thu 08:51:19 AM 28.2300 -98.3258 55° Northeast 507 583 35,000  Level Houston Center
Thu 08:52:20 AM 28.3128 -98.1942 54° Northeast 511 588 35,000  Level Houston Center
Thu 08:53:22 AM 28.3947 -98.0619 55° Northeast 513 590 35,000  Level Houston Center
Thu 08:54:24 AM 28.4733 -97.9347 55° Northeast 516 594 35,000  Level Houston Center
Thu 08:55:26 AM 28.5731 -97.7756 54° Northeast 517 595 35,000  Level Houston Center
Thu 08:56:27 AM 28.6558 -97.6422 55° Northeast 517 595 35,000  Level Houston Center
Thu 08:57:29 AM 28.7378 -97.5075 55° Northeast 518 596 35,000 -629 Level Houston Center
Thu 08:58:31 AM 28.8200 -97.3747 55° Northeast 514 592 33,700 -1,902 Descending Houston Center
Thu 08:59:32 AM 28.8992 -97.2431 55° Northeast 507 583 31,100 -2,439 Descending Houston Center
Thu 09:00:34 AM 28.9786 -97.1133 55° Northeast 502 578 28,700 -2,565 Descending Houston Center
Thu 09:01:36 AM 29.0722 -96.9583 55° Northeast 498 573 25,800 -2,585 Descending Houston Center
Thu 09:02:37 AM 29.1453 -96.8361 56° Northeast 475 547 23,400 -2,195 Descending Houston Center
Thu 09:03:39 AM 29.2142 -96.7203 56° Northeast 457 526 21,300 -2,081 Descending Houston Center
Thu 09:04:41 AM 29.2819 -96.6083 55° Northeast 438 504 19,100 -2,129 Descending Houston Center
Thu 09:05:43 AM 29.3458 -96.5014 56° Northeast 415 478 16,900 -2,389 Descending Houston Center
Thu 09:06:29 AM 29.4025 -96.4081 55° Northeast 389 448 14,800 -2,852 Descending Houston Center
Thu 09:06:44 AM 29.4192 -96.3800 56° Northeast 392 451 14,000 -2,507 Descending Houston Center
Thu 09:07:36 AM 29.4686 -96.2975 55° Northeast 376 433 12,000 -2,222 Descending Houston Center
Thu 09:08:32 AM 29.5200 -96.2103 56° Northeast 361 415 10,000 -1,667 Descending Houston Center
Thu 09:08:48 AM 29.5325 -96.1875 58° Northeast 364 419 10,000  Level Houston Center
Thu 09:09:38 AM 29.5778 -96.1006 59° Northeast 344 396 10,000 -170 Level Houston Center
Thu 09:10:34 AM 29.6208 -96.0189 59° Northeast 327 376 9,700 -405 Descending Houston Center
Thu 09:10:52 AM 29.6306 -95.9981 62° Northeast 332 382 9,500 -627 Descending Houston Center
Thu 09:11:41 AM 29.6722 -95.9314 54° Northeast 306 352 9,000 -382 Descending Houston Center
Thu 09:12:42 AM 29.7517 -95.8814 29° Northeast 304 350 8,800 -776 Descending Houston Center
Thu 09:13:37 AM 29.8133 -95.8431 28° Northeast 307 353 7,500 -1,280 Descending Houston Center
Thu 09:13:57 AM 29.8281 -95.8275 43° Northeast 308 354 7,200 -1,672 Descending Houston Center
Thu 09:14:38 AM 29.8714 -95.7617 53° Northeast 306 352 5,800 -1,548 Descending Houston Center
Thu 09:14:59 AM 29.8792 -95.7489 55° Northeast 306 352 5,600 -1,279 Descending Houston Center
Thu 09:15:39 AM 29.9211 -95.6858 52° Northeast 292 336 4,500 -1,645 Descending Houston Center
Thu 09:16:01 AM 29.9394 -95.6617 49° Northeast 293 337 3,900 -1,393 Descending Houston Center
Thu 09:16:35 AM 29.9636 -95.6206 56° Northeast 278 320 3,200 -871 Descending Houston Center
Thu 09:17:03 AM 29.9836 -95.5889 54° Northeast 281 323 3,000 -179 Descending Houston Center
Thu 09:17:42 AM 30.0053 -95.5458 60° Northeast 242 278 3,000 -194 Level Houston Center
Thu 09:18:05 AM 30.0072 -95.5206 85° East 247 284 2,800 -1,082 Descending Houston Center
Thu 09:18:43 AM 30.0067 -95.4683 91° East 208 239 1,900 -1,065 Descending Houston Center
Thu 09:19:07 AM 30.0069 -95.4517 89° East 227 261 1,700 -787 Descending Houston Center
Thu 09:19:44 AM 30.0064 -95.4178 91° East 139 160 1,100 -774 Descending Houston Center
Thu 09:20:09 AM 30.0075 -95.4050 84° East 180 207 900 -345 Descending Houston Center
Thu 09:21:11 AM 30.0092 -95.3569 88° East 156 180 600 -290 Descending Houston Center
Thu 09:23:00 AM 29.9833 -95.3333 98° East  Level FlightAware Approximate

Login

Don't have an account? Register now (free) for customized features, flight alerts, and more!